RJNH(METAR)
02/18 15:00
METAR RJNH 180600Z VRB04KT 9999 FEW025 SCT230 14/M05 Q1022 RMK
1CU025 A3019=
戻る
トップページへ戻る
IMOC Co,.Ltd.